Time,TemperatureF,DewpointF,PressureIn,WindDirection,WindDirectionDegrees,WindSpeedMPH,WindSpeedGustMPH,Humidity,HourlyPrecipIn,Conditions,Clouds,dailyrainin,SoftwareType,DateUTC
2013-02-14 00:02:00,39.0,36.0,-100.00,South,180,6.0,11.0,90,-99.99,,,-99.99,,2013-02-14 06:02:00,
2013-02-14 00:11:00,39.0,36.0,-100.00,South,175,6.0,9.0,91,-99.99,,,-99.99,,2013-02-14 06:11:00,
2013-02-14 00:21:00,39.0,36.0,-100.00,South,175,6.0,9.0,91,-99.99,,,-99.99,,2013-02-14 06:21:00,
2013-02-14 00:42:00,39.0,37.0,-100.00,South,180,6.0,9.0,91,-99.99,,,-99.99,,2013-02-14 06:42:00,
2013-02-14 00:52:00,39.0,37.0,-100.00,South,170,8.0,10.0,91,-99.99,,,-99.99,,2013-02-14 06:52:00,
2013-02-14 01:01:00,39.0,37.0,-100.00,South,170,8.0,10.0,91,-99.99,,,-99.99,,2013-02-14 07:01:00,
2013-02-14 01:11:00,39.0,37.0,-100.00,South,185,11.0,14.0,91,-99.99,,,-99.99,,2013-02-14 07:11:00,
2013-02-14 01:21:00,39.0,37.0,-100.00,South,180,6.0,10.0,91,-99.99,,,-99.99,,2013-02-14 07:21:00,
2013-02-14 01:32:00,39.0,37.0,-100.00,South,180,6.0,10.0,91,-99.99,,,-99.99,,2013-02-14 07:32:00,
2013-02-14 01:41:00,39.0,36.0,-100.00,South,180,9.0,10.0,91,-99.99,,,-99.99,,2013-02-14 07:41:00,
2013-02-14 01:52:00,38.0,36.0,-100.00,South,180,9.0,16.0,91,-99.99,,,-99.99,,2013-02-14 07:52:00,
2013-02-14 02:01:00,38.0,36.0,-100.00,South,180,9.0,16.0,91,-99.99,,,-99.99,,2013-02-14 08:01:00,
2013-02-14 02:11:00,38.0,36.0,-100.00,South,180,6.0,9.0,91,-99.99,,,-99.99,,2013-02-14 08:11:00,
2013-02-14 02:21:00,38.0,36.0,-100.00,South,175,6.0,9.0,92,-99.99,,,-99.99,,2013-02-14 08:21:00,
2013-02-14 02:32:00,38.0,36.0,-100.00,South,175,6.0,9.0,92,-99.99,,,-99.99,,2013-02-14 08:32:00,
2013-02-14 02:43:00,38.0,36.0,-100.00,South,175,6.0,10.0,92,-99.99,,,-99.99,,2013-02-14 08:43:00,
2013-02-14 02:52:00,38.0,36.0,-100.00,SSE,160,4.0,8.0,92,-99.99,,,-99.99,,2013-02-14 08:52:00,
2013-02-14 03:02:00,38.0,36.0,-100.00,SSE,160,4.0,8.0,92,-99.99,,,-99.99,,2013-02-14 09:02:00,
2013-02-14 03:11:00,38.0,36.0,-100.00,South,185,9.0,16.0,92,-99.99,,,-99.99,,2013-02-14 09:11:00,
2013-02-14 03:21:00,38.0,36.0,-100.00,South,180,10.0,14.0,92,-99.99,,,-99.99,,2013-02-14 09:21:00,
2013-02-14 03:32:00,38.0,36.0,-100.00,South,180,10.0,14.0,92,-99.99,,,-99.99,,2013-02-14 09:32:00,
2013-02-14 03:42:00,38.0,35.0,-100.00,South,185,6.0,9.0,92,-99.99,,,-99.99,,2013-02-14 09:42:00,
2013-02-14 03:52:00,38.0,36.0,-100.00,South,170,11.0,17.0,93,-99.99,,,-99.99,,2013-02-14 09:52:00,
2013-02-14 04:02:00,38.0,36.0,-100.00,South,170,11.0,17.0,93,-99.99,,,-99.99,,2013-02-14 10:02:00,
2013-02-14 04:11:00,37.0,35.0,-100.00,South,185,8.0,12.0,93,-99.99,,,-99.99,,2013-02-14 10:11:00,
2013-02-14 04:21:00,37.0,35.0,-100.00,South,180,9.0,12.0,93,-99.99,,,-99.99,,2013-02-14 10:21:00,
2013-02-14 04:31:00,37.0,35.0,-100.00,South,180,9.0,12.0,93,-99.99,,,-99.99,,2013-02-14 10:31:00,
2013-02-14 04:42:00,37.0,35.0,-100.00,South,180,12.0,19.0,93,-99.99,,,-99.99,,2013-02-14 10:42:00,
2013-02-14 04:52:00,37.0,35.0,-100.00,SSE,165,14.0,18.0,93,-99.99,,,-99.99,,2013-02-14 10:52:00,
2013-02-14 05:02:00,37.0,35.0,-100.00,SSE,165,14.0,18.0,93,-99.99,,,-99.99,,2013-02-14 11:02:00,
2013-02-14 05:11:00,37.0,35.0,-100.00,South,180,9.0,11.0,93,-99.99,,,-99.99,,2013-02-14 11:11:00,
2013-02-14 05:21:00,37.0,35.0,-100.00,South,175,9.0,14.0,93,-99.99,,,-99.99,,2013-02-14 11:21:00,
2013-02-14 05:32:00,37.0,35.0,-100.00,South,175,9.0,14.0,93,-99.99,,,-99.99,,2013-02-14 11:32:00,
2013-02-14 05:42:00,37.0,35.0,-100.00,South,180,9.0,11.0,93,-99.99,,,-99.99,,2013-02-14 11:42:00,
2013-02-14 05:52:00,37.0,35.0,-100.00,SSE,165,10.0,14.0,93,-99.99,,,-99.99,,2013-02-14 11:52:00,
2013-02-14 06:02:00,37.0,35.0,-100.00,SSE,165,10.0,14.0,93,-99.99,,,-99.99,,2013-02-14 12:02:00,
2013-02-14 06:12:00,37.0,35.0,-100.00,South,180,14.0,21.0,93,-99.99,,,-99.99,,2013-02-14 12:12:00,
2013-02-14 06:22:00,36.0,35.0,-100.00,South,170,4.0,8.0,93,-99.99,,,-99.99,,2013-02-14 12:22:00,
2013-02-14 06:32:00,36.0,35.0,-100.00,South,170,4.0,8.0,93,-99.99,,,-99.99,,2013-02-14 12:32:00,
2013-02-14 06:42:00,36.0,35.0,-100.00,SSW,195,9.0,12.0,93,-99.99,,,-99.99,,2013-02-14 12:42:00,
2013-02-14 06:53:00,36.0,34.0,-100.00,South,185,9.0,11.0,93,-99.99,,,-99.99,,2013-02-14 12:53:00,
2013-02-14 07:02:00,36.0,34.0,-100.00,South,185,9.0,11.0,93,-99.99,,,-99.99,,2013-02-14 13:02:00,
2013-02-14 07:11:00,36.0,34.0,-100.00,South,175,8.0,10.0,93,-99.99,,,-99.99,,2013-02-14 13:11:00,
2013-02-14 07:21:00,36.0,34.0,-100.00,South,180,10.0,12.0,93,-99.99,,,-99.99,,2013-02-14 13:21:00,
2013-02-14 07:32:00,36.0,34.0,-100.00,South,180,10.0,12.0,93,-99.99,,,-99.99,,2013-02-14 13:32:00,
2013-02-14 07:42:00,36.0,34.0,-100.00,South,180,10.0,12.0,93,-99.99,,,-99.99,,2013-02-14 13:42:00,
2013-02-14 07:52:00,36.0,34.0,-100.00,SSW,195,6.0,9.0,93,-99.99,,,-99.99,,2013-02-14 13:52:00,
2013-02-14 08:01:00,36.0,34.0,-100.00,SSW,195,6.0,9.0,93,-99.99,,,-99.99,,2013-02-14 14:01:00,
2013-02-14 08:11:00,37.0,35.0,-100.00,South,180,9.0,10.0,93,-99.99,,,-99.99,,2013-02-14 14:11:00,
2013-02-14 08:21:00,38.0,35.0,-100.00,South,185,8.0,11.0,92,-99.99,,,-99.99,,2013-02-14 14:21:00,
2013-02-14 08:31:00,38.0,35.0,-100.00,South,185,8.0,11.0,92,-99.99,,,-99.99,,2013-02-14 14:31:00,
2013-02-14 08:41:00,38.0,36.0,-100.00,South,190,10.0,12.0,91,-99.99,,,-99.99,,2013-02-14 14:41:00,
2013-02-14 08:52:00,39.0,36.0,-100.00,SSE,165,9.0,14.0,89,-99.99,,,-99.99,,2013-02-14 14:52:00,
2013-02-14 09:02:00,39.0,36.0,-100.00,SSE,165,9.0,14.0,89,-99.99,,,-99.99,,2013-02-14 15:02:00,
2013-02-14 09:11:00,40.0,36.0,-100.00,South,180,12.0,18.0,83,-99.99,,,-99.99,,2013-02-14 15:11:00,
2013-02-14 09:21:00,42.0,35.0,-100.00,South,170,9.0,16.0,76,-99.99,,,-99.99,,2013-02-14 15:21:00,
2013-02-14 09:32:00,42.0,35.0,-100.00,South,170,9.0,16.0,76,-99.99,,,-99.99,,2013-02-14 15:32:00,
2013-02-14 09:42:00,43.0,34.0,-100.00,SSW,210,11.0,17.0,71,-99.99,,,-99.99,,2013-02-14 15:42:00,
2013-02-14 09:52:00,44.0,34.0,-100.00,SSW,200,8.0,9.0,67,-99.99,,,-99.99,,2013-02-14 15:52:00,
2013-02-14 10:02:00,44.0,34.0,-100.00,SSW,200,8.0,9.0,67,-99.99,,,-99.99,,2013-02-14 16:02:00,
2013-02-14 10:11:00,45.0,33.0,-100.00,SW,215,9.0,12.0,64,-99.99,,,-99.99,,2013-02-14 16:11:00,
2013-02-14 10:21:00,46.0,33.0,-100.00,SSW,195,8.0,10.0,60,-99.99,,,-99.99,,2013-02-14 16:21:00,
2013-02-14 10:32:00,46.0,33.0,-100.00,SSW,195,8.0,10.0,60,-99.99,,,-99.99,,2013-02-14 16:32:00,
2013-02-14 10:41:00,47.0,33.0,-100.00,SSW,210,9.0,11.0,56,-99.99,,,-99.99,,2013-02-14 16:41:00,
2013-02-14 10:52:00,49.0,32.0,-100.00,South,190,6.0,9.0,52,-99.99,,,-99.99,,2013-02-14 16:52:00,
2013-02-14 11:01:00,49.0,32.0,-100.00,South,190,6.0,9.0,52,-99.99,,,-99.99,,2013-02-14 17:01:00,
2013-02-14 11:11:00,49.0,31.0,-100.00,SW,225,8.0,10.0,49,-99.99,,,-99.99,,2013-02-14 17:11:00,
2013-02-14 11:21:00,51.0,31.0,-100.00,WSW,250,4.0,6.0,47,-99.99,,,-99.99,,2013-02-14 17:21:00,
2013-02-14 11:32:00,51.0,31.0,-100.00,WSW,250,4.0,6.0,47,-99.99,,,-99.99,,2013-02-14 17:32:00,
2013-02-14 11:42:00,52.0,32.0,-100.00,SW,220,4.0,6.0,46,-99.99,,,-99.99,,2013-02-14 17:42:00,
2013-02-14 11:52:00,53.0,31.0,-100.00,SW,225,6.0,10.0,43,-99.99,,,-99.99,,2013-02-14 17:52:00,
2013-02-14 12:01:00,53.0,31.0,-100.00,SW,225,6.0,10.0,43,-99.99,,,-99.99,,2013-02-14 18:01:00,
2013-02-14 12:11:00,54.0,31.0,-100.00,WSW,240,6.0,9.0,42,-99.99,,,-99.99,,2013-02-14 18:11:00,
2013-02-14 12:23:00,55.0,31.0,-100.00,SSE,165,3.0,4.0,41,-99.99,,,-99.99,,2013-02-14 18:23:00,
2013-02-14 12:32:00,55.0,31.0,-100.00,SSE,165,3.0,4.0,41,-99.99,,,-99.99,,2013-02-14 18:32:00,
2013-02-14 12:42:00,55.0,31.0,-100.00,WSW,250,6.0,9.0,39,-99.99,,,-99.99,,2013-02-14 18:42:00,
2013-02-14 12:52:00,57.0,30.0,-100.00,SW,220,11.0,14.0,36,-99.99,,,-99.99,,2013-02-14 18:52:00,
2013-02-14 13:02:00,57.0,30.0,-100.00,SW,220,11.0,14.0,36,-99.99,,,-99.99,,2013-02-14 19:02:00,
2013-02-14 13:11:00,57.0,29.0,-100.00,SW,220,6.0,10.0,35,-99.99,,,-99.99,,2013-02-14 19:11:00,
2013-02-14 13:21:00,58.0,30.0,-100.00,SW,230,10.0,12.0,34,-99.99,,,-99.99,,2013-02-14 19:21:00,
2013-02-14 13:31:00,58.0,30.0,-100.00,SW,230,10.0,12.0,34,-99.99,,,-99.99,,2013-02-14 19:31:00,
2013-02-14 13:42:00,59.0,30.0,-100.00,SW,220,4.0,8.0,33,-99.99,,,-99.99,,2013-02-14 19:42:00,
2013-02-14 13:52:00,59.0,30.0,-100.00,SSW,195,10.0,14.0,33,-99.99,,,-99.99,,2013-02-14 19:52:00,
2013-02-14 14:01:00,59.0,30.0,-100.00,SSW,195,10.0,14.0,33,-99.99,,,-99.99,,2013-02-14 20:01:00,
2013-02-14 14:11:00,59.0,29.0,-100.00,SSW,210,12.0,14.0,32,-99.99,,,-99.99,,2013-02-14 20:11:00,
2013-02-14 14:21:00,59.0,29.0,-100.00,SW,235,9.0,14.0,32,-99.99,,,-99.99,,2013-02-14 20:21:00,
2013-02-14 14:32:00,59.0,29.0,-100.00,SW,235,9.0,14.0,32,-99.99,,,-99.99,,2013-02-14 20:32:00,
2013-02-14 14:42:00,59.0,29.0,-100.00,SSW,205,10.0,14.0,32,-99.99,,,-99.99,,2013-02-14 20:42:00,
2013-02-14 14:52:00,59.0,29.0,-100.00,SSW,205,10.0,14.0,32,-99.99,,,-99.99,,2013-02-14 20:52:00,
2013-02-14 15:11:00,60.0,29.0,-100.00,SW,225,6.0,9.0,31,-99.99,,,-99.99,,2013-02-14 21:11:00,
2013-02-14 15:21:00,59.0,29.0,-100.00,SW,225,6.0,6.0,32,-99.99,,,-99.99,,2013-02-14 21:21:00,
2013-02-14 15:31:00,59.0,29.0,-100.00,SW,225,6.0,6.0,32,-99.99,,,-99.99,,2013-02-14 21:31:00,
2013-02-14 15:42:00,59.0,29.0,-100.00,SSW,205,2.0,6.0,32,-99.99,,,-99.99,,2013-02-14 21:42:00,
2013-02-14 15:52:00,59.0,29.0,-100.00,SSW,200,2.0,6.0,32,-99.99,,,-99.99,,2013-02-14 21:52:00,
2013-02-14 16:02:00,59.0,29.0,-100.00,SSW,200,2.0,6.0,32,-99.99,,,-99.99,,2013-02-14 22:02:00,
2013-02-14 16:11:00,60.0,27.0,-100.00,WSW,250,10.0,14.0,28,-99.99,,,-99.99,,2013-02-14 22:11:00,
2013-02-14 16:21:00,59.0,26.0,-100.00,SW,235,8.0,12.0,28,-99.99,,,-99.99,,2013-02-14 22:21:00,
2013-02-14 16:42:00,59.0,26.0,-100.00,SW,235,8.0,11.0,29,-99.99,,,-99.99,,2013-02-14 22:42:00,
2013-02-14 16:52:00,58.0,26.0,-100.00,West,275,6.0,9.0,29,-99.99,,,-99.99,,2013-02-14 22:52:00,
2013-02-14 17:11:00,57.0,26.0,-100.00,West,260,3.0,4.0,30,-99.99,,,-99.99,,2013-02-14 23:11:00,
2013-02-14 17:21:00,58.0,27.0,-100.00,WNW,300,3.0,4.0,31,-99.99,,,-99.99,,2013-02-14 23:21:00,
2013-02-14 17:32:00,58.0,27.0,-100.00,WNW,300,3.0,4.0,31,-99.99,,,-99.99,,2013-02-14 23:32:00,
2013-02-14 17:41:00,57.0,27.0,-100.00,WNW,300,4.0,6.0,32,-99.99,,,-99.99,,2013-02-14 23:41:00,
2013-02-14 17:52:00,56.0,27.0,-100.00,WNW,290,6.0,9.0,32,-99.99,,,-99.99,,2013-02-14 23:52:00,
2013-02-14 18:01:00,56.0,27.0,-100.00,WNW,290,6.0,9.0,32,-99.99,,,-99.99,,2013-02-15 00:01:00,
2013-02-14 18:11:00,55.0,25.0,-100.00,West,280,3.0,3.0,31,-99.99,,,-99.99,,2013-02-15 00:11:00,
2013-02-14 18:22:00,54.0,25.0,-100.00,SSW,195,2.0,3.0,32,-99.99,,,-99.99,,2013-02-15 00:22:00,
2013-02-14 18:42:00,52.0,24.0,-100.00,South,180,2.0,3.0,33,-99.99,,,-99.99,,2013-02-15 00:42:00,
2013-02-14 18:52:00,51.0,25.0,-100.00,WNW,285,1.0,3.0,36,-99.99,,,-99.99,,2013-02-15 00:52:00,
2013-02-14 19:11:00,51.0,25.0,-100.00,NE,35,0.0,0.0,37,-99.99,,,-99.99,,2013-02-15 01:11:00,
2013-02-14 19:21:00,51.0,25.0,-100.00,WSW,250,3.0,4.0,36,-99.99,,,-99.99,,2013-02-15 01:21:00,
2013-02-14 19:41:00,51.0,25.0,-100.00,WSW,250,3.0,4.0,36,-99.99,,,-99.99,,2013-02-15 01:41:00,
2013-02-14 19:52:00,51.0,25.0,-100.00,West,280,2.0,4.0,36,-99.99,,,-99.99,,2013-02-15 01:52:00,
2013-02-14 20:01:00,51.0,25.0,-100.00,West,280,2.0,4.0,36,-99.99,,,-99.99,,2013-02-15 02:01:00,
2013-02-14 20:11:00,50.0,24.0,-100.00,WNW,290,3.0,3.0,36,-99.99,,,-99.99,,2013-02-15 02:11:00,
2013-02-14 20:21:00,49.0,24.0,-100.00,West,280,1.0,2.0,37,-99.99,,,-99.99,,2013-02-15 02:21:00,
2013-02-14 20:31:00,48.0,24.0,-100.00,WNW,295,3.0,4.0,38,-99.99,,,-99.99,,2013-02-15 02:31:00,
2013-02-14 20:52:00,47.0,24.0,-100.00,WNW,290,4.0,4.0,40,-99.99,,,-99.99,,2013-02-15 02:52:00,
2013-02-14 21:11:00,46.0,24.0,-100.00,WNW,285,3.0,6.0,42,-99.99,,,-99.99,,2013-02-15 03:11:00,
2013-02-14 21:22:00,47.0,25.0,-100.00,NNW,345,3.0,6.0,41,-99.99,,,-99.99,,2013-02-15 03:22:00,
2013-02-14 21:32:00,47.0,25.0,-100.00,NNW,345,3.0,6.0,41,-99.99,,,-99.99,,2013-02-15 03:32:00,
2013-02-14 21:42:00,49.0,25.0,-100.00,NW,310,4.0,6.0,39,-99.99,,,-99.99,,2013-02-15 03:42:00,
2013-02-14 21:52:00,48.0,25.0,-100.00,WNW,300,6.0,9.0,40,-99.99,,,-99.99,,2013-02-15 03:52:00,
2013-02-14 22:01:00,48.0,25.0,-100.00,WNW,300,6.0,9.0,40,-99.99,,,-99.99,,2013-02-15 04:01:00,
2013-02-14 22:11:00,48.0,25.0,-100.00,NW,305,0.0,2.0,41,-99.99,,,-99.99,,2013-02-15 04:11:00,
2013-02-14 22:21:00,47.0,25.0,-100.00,NNW,335,3.0,6.0,42,-99.99,,,-99.99,,2013-02-15 04:21:00,
2013-02-14 22:32:00,47.0,25.0,-100.00,NNW,335,3.0,6.0,42,-99.99,,,-99.99,,2013-02-15 04:32:00,
2013-02-14 22:42:00,47.0,26.0,-100.00,NNW,330,3.0,6.0,44,-99.99,,,-99.99,,2013-02-15 04:42:00,
2013-02-14 22:52:00,46.0,26.0,-100.00,NW,325,1.0,3.0,45,-99.99,,,-99.99,,2013-02-15 04:52:00,
2013-02-14 23:02:00,46.0,26.0,-100.00,NW,325,1.0,3.0,45,-99.99,,,-99.99,,2013-02-15 05:02:00,
2013-02-14 23:12:00,46.0,26.0,-100.00,North,350,2.0,6.0,46,-99.99,,,-99.99,,2013-02-15 05:12:00,
2013-02-14 23:22:00,45.0,26.0,-100.00,North,350,3.0,6.0,47,-99.99,,,-99.99,,2013-02-15 05:22:00,
2013-02-14 23:31:00,44.0,27.0,-100.00,NNW,340,4.0,6.0,52,-99.99,,,-99.99,,2013-02-15 05:31:00,
2013-02-14 23:32:00,45.0,26.0,-100.00,North,350,3.0,6.0,47,-99.99,,,-99.99,,2013-02-15 05:32:00,
2013-02-14 23:42:00,45.0,27.0,-100.00,NNW,335,2.0,3.0,48,-99.99,,,-99.99,,2013-02-15 05:42:00,
2013-02-14 23:52:00,45.0,27.0,-100.00,North,355,2.0,3.0,50,-99.99,,,-99.99,,2013-02-15 05:52:00,